Terminal Aerodrome Forecast
Issued by NWS

Home | Current Version | Previous Version | Text Only | Print | Product List | Glossary On
Versions: 1 2 3 4 5 6 7 8 9 10 11 12 13 14 15 16 17 18 19
552
FTAK31 PAJN 030704 AAA
TAFAPG
TAF AMD
PAPG 030704Z 0307/0406 18010G18KT 5SM -SHRA BR SCT015 BKN025 OVC035
      WS020/20040KT
     FM031200 21010KT 5SM -SHRA BR BKN020 OVC030
      TEMPO 0318/0322 2SM -SHRA BKN015 OVC025
      AMD LTD TO CLD VIS AND WIND 0306/0315=

USA.gov is the U.S. government's official web portal to all federal, state and local government web resources and services.